sensor_id;sensor_type;location;lat;lon;timestamp;P1;durP1;ratioP1;P2;durP2;ratioP2
81150;SDS011;70629;-26.026;27.976;2024-01-25T00:00:17;9.95;;;8.02;;
81150;SDS011;70629;-26.026;27.976;2024-01-25T00:00:57;9.60;;;8.52;;
81150;SDS011;70629;-26.026;27.976;2024-01-25T00:01:37;10.35;;;8.07;;
81150;SDS011;70629;-26.026;27.976;2024-01-25T00:02:18;10.02;;;7.88;;
81150;SDS011;70629;-26.026;27.976;2024-01-25T00:02:58;9.68;;;7.95;;
81150;SDS011;70629;-26.026;27.976;2024-01-25T00:03:37;10.07;;;8.38;;
81150;SDS011;70629;-26.026;27.976;2024-01-25T00:04:17;10.15;;;8.75;;
81150;SDS011;70629;-26.026;27.976;2024-01-25T00:04:58;10.75;;;8.70;;
81150;SDS011;70629;-26.026;27.976;2024-01-25T00:05:38;10.82;;;9.65;;
81150;SDS011;70629;-26.026;27.976;2024-01-25T00:06:18;10.80;;;8.02;;
81150;SDS011;70629;-26.026;27.976;2024-01-25T00:06:59;12.38;;;9.02;;
81150;SDS011;70629;-26.026;27.976;2024-01-25T00:07:46;10.90;;;8.40;;
81150;SDS011;70629;-26.026;27.976;2024-01-25T00:08:27;9.30;;;7.35;;
81150;SDS011;70629;-26.026;27.976;2024-01-25T00:09:07;9.05;;;8.15;;
81150;SDS011;70629;-26.026;27.976;2024-01-25T00:09:47;10.18;;;7.50;;
81150;SDS011;70629;-26.026;27.976;2024-01-25T00:10:27;10.43;;;9.13;;
81150;SDS011;70629;-26.026;27.976;2024-01-25T00:11:07;11.07;;;9.32;;
81150;SDS011;70629;-26.026;27.976;2024-01-25T00:11:48;9.50;;;8.32;;
81150;SDS011;70629;-26.026;27.976;2024-01-25T00:12:28;11.00;;;8.98;;
81150;SDS011;70629;-26.026;27.976;2024-01-25T00:13:08;11.18;;;8.48;;
81150;SDS011;70629;-26.026;27.976;2024-01-25T00:13:48;10.02;;;8.55;;
81150;SDS011;70629;-26.026;27.976;2024-01-25T00:14:28;11.00;;;8.65;;
81150;SDS011;70629;-26.026;27.976;2024-01-25T00:15:08;10.02;;;8.25;;
81150;SDS011;70629;-26.026;27.976;2024-01-25T00:15:49;10.63;;;8.57;;
81150;SDS011;70629;-26.026;27.976;2024-01-25T00:16:30;10.32;;;8.15;;
81150;SDS011;70629;-26.026;27.976;2024-01-25T00:17:09;11.98;;;9.00;;
81150;SDS011;70629;-26.026;27.976;2024-01-25T00:17:49;10.85;;;8.98;;
81150;SDS011;70629;-26.026;27.976;2024-01-25T00:18:29;11.55;;;9.27;;
81150;SDS011;70629;-26.026;27.976;2024-01-25T00:19:09;12.38;;;8.98;;
81150;SDS011;70629;-26.026;27.976;2024-01-25T00:19:49;9.93;;;8.90;;
81150;SDS011;70629;-26.026;27.976;2024-01-25T00:20:29;14.65;;;8.57;;
81150;SDS011;70629;-26.026;27.976;2024-01-25T00:21:09;9.85;;;8.30;;
81150;SDS011;70629;-26.026;27.976;2024-01-25T00:21:48;10.63;;;8.30;;
81150;SDS011;70629;-26.026;27.976;2024-01-25T00:22:28;10.23;;;8.10;;
81150;SDS011;70629;-26.026;27.976;2024-01-25T00:23:08;9.18;;;8.10;;
81150;SDS011;70629;-26.026;27.976;2024-01-25T00:23:48;15.13;;;9.55;;
81150;SDS011;70629;-26.026;27.976;2024-01-25T00:24:28;12.00;;;8.73;;
81150;SDS011;70629;-26.026;27.976;2024-01-25T00:25:08;11.00;;;8.73;;
81150;SDS011;70629;-26.026;27.976;2024-01-25T00:25:48;10.95;;;8.98;;
81150;SDS011;70629;-26.026;27.976;2024-01-25T00:26:28;11.25;;;8.73;;
81150;SDS011;70629;-26.026;27.976;2024-01-25T00:27:08;10.15;;;8.80;;
81150;SDS011;70629;-26.026;27.976;2024-01-25T00:27:48;10.60;;;8.15;;
81150;SDS011;70629;-26.026;27.976;2024-01-25T00:28:28;10.13;;;7.90;;
81150;SDS011;70629;-26.026;27.976;2024-01-25T00:29:08;10.77;;;8.85;;
81150;SDS011;70629;-26.026;27.976;2024-01-25T00:29:48;11.85;;;8.85;;
81150;SDS011;70629;-26.026;27.976;2024-01-25T00:30:28;11.98;;;9.18;;
81150;SDS011;70629;-26.026;27.976;2024-01-25T00:31:08;14.25;;;9.63;;
81150;SDS011;70629;-26.026;27.976;2024-01-25T00:31:48;11.60;;;9.45;;
81150;SDS011;70629;-26.026;27.976;2024-01-25T00:32:28;11.68;;;8.70;;
81150;SDS011;70629;-26.026;27.976;2024-01-25T00:33:08;13.43;;;10.07;;
81150;SDS011;70629;-26.026;27.976;2024-01-25T00:33:49;13.18;;;10.25;;
81150;SDS011;70629;-26.026;27.976;2024-01-25T00:34:29;12.07;;;9.18;;
81150;SDS011;70629;-26.026;27.976;2024-01-25T00:35:10;12.05;;;9.38;;
81150;SDS011;70629;-26.026;27.976;2024-01-25T00:35:52;12.32;;;9.60;;
81150;SDS011;70629;-26.026;27.976;2024-01-25T00:36:32;12.15;;;9.80;;
81150;SDS011;70629;-26.026;27.976;2024-01-25T00:37:12;15.43;;;10.00;;
81150;SDS011;70629;-26.026;27.976;2024-01-25T00:37:53;17.30;;;11.25;;
81150;SDS011;70629;-26.026;27.976;2024-01-25T00:38:33;13.48;;;10.02;;
81150;SDS011;70629;-26.026;27.976;2024-01-25T00:39:13;13.85;;;10.55;;
81150;SDS011;70629;-26.026;27.976;2024-01-25T00:39:53;13.45;;;10.50;;
81150;SDS011;70629;-26.026;27.976;2024-01-25T00:40:33;14.70;;;10.45;;
81150;SDS011;70629;-26.026;27.976;2024-01-25T00:41:15;17.50;;;11.82;;
81150;SDS011;70629;-26.026;27.976;2024-01-25T00:42:03;21.00;;;12.85;;
81150;SDS011;70629;-26.026;27.976;2024-01-25T00:42:46;15.90;;;10.90;;
81150;SDS011;70629;-26.026;27.976;2024-01-25T00:43:32;18.83;;;13.30;;
81150;SDS011;70629;-26.026;27.976;2024-01-25T00:44:13;16.75;;;12.50;;
81150;SDS011;70629;-26.026;27.976;2024-01-25T00:44:53;20.98;;;14.38;;
81150;SDS011;70629;-26.026;27.976;2024-01-25T00:45:33;19.05;;;13.38;;
81150;SDS011;70629;-26.026;27.976;2024-01-25T00:46:13;17.88;;;14.90;;
81150;SDS011;70629;-26.026;27.976;2024-01-25T00:46:53;17.17;;;14.30;;
81150;SDS011;70629;-26.026;27.976;2024-01-25T00:47:34;17.50;;;13.10;;
81150;SDS011;70629;-26.026;27.976;2024-01-25T00:48:14;18.65;;;13.63;;
81150;SDS011;70629;-26.026;27.976;2024-01-25T00:48:54;21.70;;;13.82;;
81150;SDS011;70629;-26.026;27.976;2024-01-25T00:49:35;14.45;;;12.18;;
81150;SDS011;70629;-26.026;27.976;2024-01-25T00:50:15;17.30;;;12.75;;
81150;SDS011;70629;-26.026;27.976;2024-01-25T00:51:03;15.93;;;13.13;;
81150;SDS011;70629;-26.026;27.976;2024-01-25T00:51:47;21.30;;;13.77;;
81150;SDS011;70629;-26.026;27.976;2024-01-25T00:52:28;18.60;;;14.57;;
81150;SDS011;70629;-26.026;27.976;2024-01-25T00:53:08;20.70;;;16.83;;
81150;SDS011;70629;-26.026;27.976;2024-01-25T00:53:48;19.80;;;15.27;;
81150;SDS011;70629;-26.026;27.976;2024-01-25T00:54:28;19.27;;;15.38;;
81150;SDS011;70629;-26.026;27.976;2024-01-25T00:55:10;21.05;;;15.35;;
81150;SDS011;70629;-26.026;27.976;2024-01-25T00:55:50;20.33;;;15.63;;
81150;SDS011;70629;-26.026;27.976;2024-01-25T00:56:30;20.90;;;16.48;;
81150;SDS011;70629;-26.026;27.976;2024-01-25T00:57:11;22.45;;;15.55;;
81150;SDS011;70629;-26.026;27.976;2024-01-25T00:57:51;18.65;;;14.75;;
81150;SDS011;70629;-26.026;27.976;2024-01-25T00:58:31;22.40;;;15.05;;
81150;SDS011;70629;-26.026;27.976;2024-01-25T00:59:11;24.90;;;16.73;;
81150;SDS011;70629;-26.026;27.976;2024-01-25T00:59:51;18.70;;;16.67;;
81150;SDS011;70629;-26.026;27.976;2024-01-25T01:00:32;18.08;;;15.10;;
81150;SDS011;70629;-26.026;27.976;2024-01-25T01:01:12;21.42;;;16.27;;
81150;SDS011;70629;-26.026;27.976;2024-01-25T01:01:52;19.23;;;15.68;;
81150;SDS011;70629;-26.026;27.976;2024-01-25T01:02:39;18.88;;;14.05;;
81150;SDS011;70629;-26.026;27.976;2024-01-25T01:03:22;18.95;;;15.70;;
81150;SDS011;70629;-26.026;27.976;2024-01-25T01:04:02;24.80;;;15.35;;
81150;SDS011;70629;-26.026;27.976;2024-01-25T01:04:42;20.98;;;15.02;;
81150;SDS011;70629;-26.026;27.976;2024-01-25T01:05:25;16.67;;;12.95;;
81150;SDS011;70629;-26.026;27.976;2024-01-25T01:06:06;19.15;;;13.90;;
81150;SDS011;70629;-26.026;27.976;2024-01-25T01:06:46;18.70;;;15.23;;
81150;SDS011;70629;-26.026;27.976;2024-01-25T01:07:27;19.95;;;14.23;;
81150;SDS011;70629;-26.026;27.976;2024-01-25T01:08:08;23.05;;;14.02;;
81150;SDS011;70629;-26.026;27.976;2024-01-25T01:08:48;18.30;;;13.38;;
81150;SDS011;70629;-26.026;27.976;2024-01-25T01:09:28;20.05;;;16.50;;
81150;SDS011;70629;-26.026;27.976;2024-01-25T01:10:09;21.58;;;17.23;;
81150;SDS011;70629;-26.026;27.976;2024-01-25T01:10:49;17.20;;;14.25;;
81150;SDS011;70629;-26.026;27.976;2024-01-25T01:11:29;18.52;;;15.35;;
81150;SDS011;70629;-26.026;27.976;2024-01-25T01:12:09;19.52;;;16.02;;
81150;SDS011;70629;-26.026;27.976;2024-01-25T01:12:49;17.60;;;14.32;;
81150;SDS011;70629;-26.026;27.976;2024-01-25T01:13:30;17.25;;;13.43;;
81150;SDS011;70629;-26.026;27.976;2024-01-25T01:14:10;18.20;;;13.40;;
81150;SDS011;70629;-26.026;27.976;2024-01-25T01:14:50;18.65;;;13.85;;
81150;SDS011;70629;-26.026;27.976;2024-01-25T01:15:30;17.38;;;14.95;;
81150;SDS011;70629;-26.026;27.976;2024-01-25T01:16:10;17.65;;;14.65;;
81150;SDS011;70629;-26.026;27.976;2024-01-25T01:16:51;21.40;;;14.55;;
81150;SDS011;70629;-26.026;27.976;2024-01-25T01:17:30;18.38;;;14.73;;
81150;SDS011;70629;-26.026;27.976;2024-01-25T01:18:11;20.10;;;15.15;;
81150;SDS011;70629;-26.026;27.976;2024-01-25T01:18:50;20.30;;;14.95;;
81150;SDS011;70629;-26.026;27.976;2024-01-25T01:19:30;17.58;;;14.27;;
81150;SDS011;70629;-26.026;27.976;2024-01-25T01:20:10;17.13;;;13.02;;
81150;SDS011;70629;-26.026;27.976;2024-01-25T01:20:51;17.30;;;14.02;;
81150;SDS011;70629;-26.026;27.976;2024-01-25T01:21:31;19.17;;;16.50;;
81150;SDS011;70629;-26.026;27.976;2024-01-25T01:22:12;17.65;;;14.23;;
81150;SDS011;70629;-26.026;27.976;2024-01-25T01:22:52;20.70;;;14.98;;
81150;SDS011;70629;-26.026;27.976;2024-01-25T01:23:33;19.55;;;14.07;;
81150;SDS011;70629;-26.026;27.976;2024-01-25T01:24:13;20.05;;;14.43;;
81150;SDS011;70629;-26.026;27.976;2024-01-25T01:24:52;20.02;;;14.75;;
81150;SDS011;70629;-26.026;27.976;2024-01-25T01:25:32;19.88;;;15.23;;
81150;SDS011;70629;-26.026;27.976;2024-01-25T01:26:12;21.17;;;15.23;;
81150;SDS011;70629;-26.026;27.976;2024-01-25T01:26:52;19.10;;;15.00;;
81150;SDS011;70629;-26.026;27.976;2024-01-25T01:27:31;19.50;;;14.35;;
81150;SDS011;70629;-26.026;27.976;2024-01-25T01:28:12;17.63;;;13.82;;
81150;SDS011;70629;-26.026;27.976;2024-01-25T01:28:52;19.08;;;14.55;;
81150;SDS011;70629;-26.026;27.976;2024-01-25T01:29:31;18.42;;;14.75;;
81150;SDS011;70629;-26.026;27.976;2024-01-25T01:30:11;18.73;;;15.38;;
81150;SDS011;70629;-26.026;27.976;2024-01-25T01:30:51;20.15;;;16.67;;
81150;SDS011;70629;-26.026;27.976;2024-01-25T01:31:31;20.98;;;15.93;;
81150;SDS011;70629;-26.026;27.976;2024-01-25T01:32:11;21.50;;;15.48;;
81150;SDS011;70629;-26.026;27.976;2024-01-25T01:32:50;20.88;;;15.07;;
81150;SDS011;70629;-26.026;27.976;2024-01-25T01:33:30;21.63;;;16.67;;
81150;SDS011;70629;-26.026;27.976;2024-01-25T01:34:11;21.83;;;16.17;;
81150;SDS011;70629;-26.026;27.976;2024-01-25T01:34:52;19.98;;;15.18;;
81150;SDS011;70629;-26.026;27.976;2024-01-25T01:35:33;18.77;;;14.40;;
81150;SDS011;70629;-26.026;27.976;2024-01-25T01:36:14;19.45;;;16.17;;
81150;SDS011;70629;-26.026;27.976;2024-01-25T01:36:54;22.25;;;15.18;;
81150;SDS011;70629;-26.026;27.976;2024-01-25T01:37:33;23.65;;;15.63;;
81150;SDS011;70629;-26.026;27.976;2024-01-25T01:38:13;19.38;;;15.40;;
81150;SDS011;70629;-26.026;27.976;2024-01-25T01:38:53;20.15;;;15.85;;
81150;SDS011;70629;-26.026;27.976;2024-01-25T01:39:34;20.95;;;15.50;;
81150;SDS011;70629;-26.026;27.976;2024-01-25T01:40:14;22.83;;;15.48;;
81150;SDS011;70629;-26.026;27.976;2024-01-25T01:40:54;22.83;;;15.65;;
81150;SDS011;70629;-26.026;27.976;2024-01-25T01:41:33;21.88;;;15.38;;
81150;SDS011;70629;-26.026;27.976;2024-01-25T01:42:14;21.50;;;14.75;;
81150;SDS011;70629;-26.026;27.976;2024-01-25T01:43:00;20.73;;;15.38;;
81150;SDS011;70629;-26.026;27.976;2024-01-25T01:43:40;20.42;;;15.18;;
81150;SDS011;70629;-26.026;27.976;2024-01-25T01:44:20;21.98;;;16.33;;
81150;SDS011;70629;-26.026;27.976;2024-01-25T01:45:00;20.17;;;15.15;;
81150;SDS011;70629;-26.026;27.976;2024-01-25T01:45:40;18.52;;;15.48;;
81150;SDS011;70629;-26.026;27.976;2024-01-25T01:47:33;18.40;;;14.60;;
81150;SDS011;70629;-26.026;27.976;2024-01-25T01:48:13;23.42;;;15.55;;
81150;SDS011;70629;-26.026;27.976;2024-01-25T01:48:54;17.30;;;14.63;;
81150;SDS011;70629;-26.026;27.976;2024-01-25T01:49:34;20.48;;;14.68;;
81150;SDS011;70629;-26.026;27.976;2024-01-25T01:50:15;20.17;;;15.68;;
81150;SDS011;70629;-26.026;27.976;2024-01-25T01:50:56;17.88;;;14.15;;
81150;SDS011;70629;-26.026;27.976;2024-01-25T01:51:36;17.73;;;14.15;;
81150;SDS011;70629;-26.026;27.976;2024-01-25T01:52:16;21.40;;;14.98;;
81150;SDS011;70629;-26.026;27.976;2024-01-25T01:52:58;19.05;;;14.55;;
81150;SDS011;70629;-26.026;27.976;2024-01-25T01:53:38;20.48;;;14.68;;
81150;SDS011;70629;-26.026;27.976;2024-01-25T01:54:19;18.40;;;14.50;;
81150;SDS011;70629;-26.026;27.976;2024-01-25T01:54:58;19.83;;;17.40;;
81150;SDS011;70629;-26.026;27.976;2024-01-25T01:55:39;25.02;;;15.65;;
81150;SDS011;70629;-26.026;27.976;2024-01-25T01:56:20;19.20;;;13.98;;
81150;SDS011;70629;-26.026;27.976;2024-01-25T01:57:01;20.90;;;16.05;;
81150;SDS011;70629;-26.026;27.976;2024-01-25T01:57:41;20.25;;;15.70;;
81150;SDS011;70629;-26.026;27.976;2024-01-25T01:58:21;22.70;;;15.70;;
81150;SDS011;70629;-26.026;27.976;2024-01-25T01:59:04;21.65;;;16.17;;
81150;SDS011;70629;-26.026;27.976;2024-01-25T01:59:46;17.80;;;15.85;;
81150;SDS011;70629;-26.026;27.976;2024-01-25T02:00:28;20.67;;;15.43;;
81150;SDS011;70629;-26.026;27.976;2024-01-25T02:01:10;21.80;;;14.45;;
81150;SDS011;70629;-26.026;27.976;2024-01-25T02:01:52;19.17;;;14.65;;
81150;SDS011;70629;-26.026;27.976;2024-01-25T02:02:32;19.67;;;14.20;;
81150;SDS011;70629;-26.026;27.976;2024-01-25T02:03:12;20.23;;;16.38;;
81150;SDS011;70629;-26.026;27.976;2024-01-25T02:03:52;22.58;;;16.02;;
81150;SDS011;70629;-26.026;27.976;2024-01-25T02:04:32;21.00;;;16.65;;
81150;SDS011;70629;-26.026;27.976;2024-01-25T02:05:13;18.90;;;14.40;;
81150;SDS011;70629;-26.026;27.976;2024-01-25T02:05:52;21.48;;;15.50;;
81150;SDS011;70629;-26.026;27.976;2024-01-25T02:06:33;19.98;;;15.73;;
81150;SDS011;70629;-26.026;27.976;2024-01-25T02:07:13;21.73;;;16.55;;
81150;SDS011;70629;-26.026;27.976;2024-01-25T02:07:53;19.58;;;15.45;;
81150;SDS011;70629;-26.026;27.976;2024-01-25T02:08:33;23.13;;;16.15;;
81150;SDS011;70629;-26.026;27.976;2024-01-25T02:09:13;22.58;;;17.20;;
81150;SDS011;70629;-26.026;27.976;2024-01-25T02:09:53;16.80;;;13.88;;
81150;SDS011;70629;-26.026;27.976;2024-01-25T02:10:32;20.35;;;16.77;;
81150;SDS011;70629;-26.026;27.976;2024-01-25T02:11:12;19.17;;;15.27;;
81150;SDS011;70629;-26.026;27.976;2024-01-25T02:11:59;19.40;;;15.85;;
81150;SDS011;70629;-26.026;27.976;2024-01-25T02:12:40;19.52;;;16.13;;
81150;SDS011;70629;-26.026;27.976;2024-01-25T02:13:21;19.60;;;15.70;;
81150;SDS011;70629;-26.026;27.976;2024-01-25T02:14:01;21.67;;;16.10;;
81150;SDS011;70629;-26.026;27.976;2024-01-25T02:14:41;21.17;;;15.73;;
81150;SDS011;70629;-26.026;27.976;2024-01-25T02:15:21;18.70;;;14.57;;
81150;SDS011;70629;-26.026;27.976;2024-01-25T02:16:00;24.40;;;15.65;;
81150;SDS011;70629;-26.026;27.976;2024-01-25T02:16:40;19.40;;;15.45;;
81150;SDS011;70629;-26.026;27.976;2024-01-25T02:17:25;22.27;;;15.82;;
81150;SDS011;70629;-26.026;27.976;2024-01-25T02:18:05;21.38;;;16.42;;
81150;SDS011;70629;-26.026;27.976;2024-01-25T02:18:45;23.85;;;16.23;;
81150;SDS011;70629;-26.026;27.976;2024-01-25T02:19:26;21.23;;;15.98;;
81150;SDS011;70629;-26.026;27.976;2024-01-25T02:20:06;19.92;;;14.68;;
81150;SDS011;70629;-26.026;27.976;2024-01-25T02:20:47;20.70;;;15.05;;
81150;SDS011;70629;-26.026;27.976;2024-01-25T02:21:27;23.50;;;16.02;;
81150;SDS011;70629;-26.026;27.976;2024-01-25T02:22:07;22.23;;;16.00;;
81150;SDS011;70629;-26.026;27.976;2024-01-25T02:22:48;20.50;;;15.75;;
81150;SDS011;70629;-26.026;27.976;2024-01-25T02:23:27;21.73;;;16.85;;
81150;SDS011;70629;-26.026;27.976;2024-01-25T02:24:07;19.38;;;15.63;;
81150;SDS011;70629;-26.026;27.976;2024-01-25T02:24:47;20.08;;;16.90;;
81150;SDS011;70629;-26.026;27.976;2024-01-25T02:25:27;21.50;;;16.52;;
81150;SDS011;70629;-26.026;27.976;2024-01-25T02:26:07;20.98;;;16.00;;
81150;SDS011;70629;-26.026;27.976;2024-01-25T02:26:47;22.55;;;16.58;;
81150;SDS011;70629;-26.026;27.976;2024-01-25T02:27:27;20.27;;;16.17;;
81150;SDS011;70629;-26.026;27.976;2024-01-25T02:28:07;26.88;;;17.25;;
81150;SDS011;70629;-26.026;27.976;2024-01-25T02:28:47;21.77;;;16.27;;
81150;SDS011;70629;-26.026;27.976;2024-01-25T02:29:27;24.50;;;18.42;;
81150;SDS011;70629;-26.026;27.976;2024-01-25T02:30:07;20.85;;;16.27;;
81150;SDS011;70629;-26.026;27.976;2024-01-25T02:30:47;19.95;;;15.23;;
81150;SDS011;70629;-26.026;27.976;2024-01-25T02:31:28;23.20;;;15.18;;
81150;SDS011;70629;-26.026;27.976;2024-01-25T02:32:08;27.20;;;17.30;;
81150;SDS011;70629;-26.026;27.976;2024-01-25T02:32:47;22.98;;;16.65;;
81150;SDS011;70629;-26.026;27.976;2024-01-25T02:33:28;21.05;;;16.55;;
81150;SDS011;70629;-26.026;27.976;2024-01-25T02:34:09;21.17;;;15.93;;
81150;SDS011;70629;-26.026;27.976;2024-01-25T02:34:48;21.25;;;15.32;;
81150;SDS011;70629;-26.026;27.976;2024-01-25T02:35:29;26.30;;;17.67;;
81150;SDS011;70629;-26.026;27.976;2024-01-25T02:36:08;21.50;;;15.48;;
81150;SDS011;70629;-26.026;27.976;2024-01-25T02:36:48;24.27;;;15.80;;
81150;SDS011;70629;-26.026;27.976;2024-01-25T02:37:28;21.95;;;16.33;;
81150;SDS011;70629;-26.026;27.976;2024-01-25T02:38:08;21.23;;;16.63;;
81150;SDS011;70629;-26.026;27.976;2024-01-25T02:38:48;20.25;;;15.60;;
81150;SDS011;70629;-26.026;27.976;2024-01-25T02:39:27;22.20;;;16.38;;
81150;SDS011;70629;-26.026;27.976;2024-01-25T02:40:08;21.38;;;15.40;;
81150;SDS011;70629;-26.026;27.976;2024-01-25T02:40:48;24.35;;;17.15;;
81150;SDS011;70629;-26.026;27.976;2024-01-25T02:41:29;26.40;;;17.50;;
81150;SDS011;70629;-26.026;27.976;2024-01-25T02:42:09;21.67;;;16.17;;
81150;SDS011;70629;-26.026;27.976;2024-01-25T02:42:49;23.45;;;15.68;;
81150;SDS011;70629;-26.026;27.976;2024-01-25T02:43:29;22.08;;;15.63;;
81150;SDS011;70629;-26.026;27.976;2024-01-25T02:44:09;24.48;;;18.75;;
81150;SDS011;70629;-26.026;27.976;2024-01-25T02:44:50;23.42;;;17.40;;
81150;SDS011;70629;-26.026;27.976;2024-01-25T02:45:30;21.35;;;17.02;;
81150;SDS011;70629;-26.026;27.976;2024-01-25T02:46:09;22.67;;;17.02;;
81150;SDS011;70629;-26.026;27.976;2024-01-25T02:46:49;23.15;;;17.25;;
81150;SDS011;70629;-26.026;27.976;2024-01-25T02:47:29;21.40;;;17.15;;
81150;SDS011;70629;-26.026;27.976;2024-01-25T02:48:09;26.23;;;17.45;;
81150;SDS011;70629;-26.026;27.976;2024-01-25T02:48:49;26.73;;;16.45;;
81150;SDS011;70629;-26.026;27.976;2024-01-25T02:49:29;22.70;;;18.55;;
81150;SDS011;70629;-26.026;27.976;2024-01-25T02:50:09;23.83;;;17.42;;
81150;SDS011;70629;-26.026;27.976;2024-01-25T02:50:49;25.20;;;17.45;;
81150;SDS011;70629;-26.026;27.976;2024-01-25T02:51:29;22.13;;;18.35;;
81150;SDS011;70629;-26.026;27.976;2024-01-25T02:52:09;25.58;;;17.48;;
81150;SDS011;70629;-26.026;27.976;2024-01-25T02:52:49;22.02;;;17.35;;
81150;SDS011;70629;-26.026;27.976;2024-01-25T02:53:29;22.90;;;17.33;;
81150;SDS011;70629;-26.026;27.976;2024-01-25T02:54:09;22.77;;;16.25;;
81150;SDS011;70629;-26.026;27.976;2024-01-25T02:54:49;23.02;;;16.58;;
81150;SDS011;70629;-26.026;27.976;2024-01-25T02:55:29;24.23;;;16.15;;
81150;SDS011;70629;-26.026;27.976;2024-01-25T02:56:09;23.50;;;17.02;;
81150;SDS011;70629;-26.026;27.976;2024-01-25T02:56:48;24.20;;;17.58;;
81150;SDS011;70629;-26.026;27.976;2024-01-25T02:57:30;22.10;;;15.10;;
81150;SDS011;70629;-26.026;27.976;2024-01-25T02:58:10;23.15;;;16.33;;
81150;SDS011;70629;-26.026;27.976;2024-01-25T02:58:50;23.95;;;18.42;;
81150;SDS011;70629;-26.026;27.976;2024-01-25T02:59:30;23.38;;;16.55;;
81150;SDS011;70629;-26.026;27.976;2024-01-25T03:00:10;22.15;;;16.60;;
81150;SDS011;70629;-26.026;27.976;2024-01-25T03:00:51;35.28;;;18.45;;
81150;SDS011;70629;-26.026;27.976;2024-01-25T03:01:38;27.42;;;18.25;;
81150;SDS011;70629;-26.026;27.976;2024-01-25T03:02:21;22.67;;;17.73;;
81150;SDS011;70629;-26.026;27.976;2024-01-25T03:03:01;21.70;;;16.33;;
81150;SDS011;70629;-26.026;27.976;2024-01-25T03:03:40;23.58;;;17.17;;
81150;SDS011;70629;-26.026;27.976;2024-01-25T03:04:22;23.85;;;17.63;;
81150;SDS011;70629;-26.026;27.976;2024-01-25T03:05:02;22.90;;;16.70;;
81150;SDS011;70629;-26.026;27.976;2024-01-25T03:05:42;22.42;;;17.38;;
81150;SDS011;70629;-26.026;27.976;2024-01-25T03:06:22;20.42;;;15.93;;
81150;SDS011;70629;-26.026;27.976;2024-01-25T03:07:01;22.58;;;17.60;;
81150;SDS011;70629;-26.026;27.976;2024-01-25T03:07:42;21.80;;;16.27;;
81150;SDS011;70629;-26.026;27.976;2024-01-25T03:08:22;21.52;;;16.60;;
81150;SDS011;70629;-26.026;27.976;2024-01-25T03:09:01;22.52;;;17.48;;
81150;SDS011;70629;-26.026;27.976;2024-01-25T03:09:43;19.17;;;15.68;;
81150;SDS011;70629;-26.026;27.976;2024-01-25T03:10:23;23.10;;;17.48;;
81150;SDS011;70629;-26.026;27.976;2024-01-25T03:11:03;20.85;;;16.50;;
81150;SDS011;70629;-26.026;27.976;2024-01-25T03:11:43;22.80;;;15.93;;
81150;SDS011;70629;-26.026;27.976;2024-01-25T03:12:23;21.20;;;16.45;;
81150;SDS011;70629;-26.026;27.976;2024-01-25T03:13:03;26.80;;;17.35;;
81150;SDS011;70629;-26.026;27.976;2024-01-25T03:13:43;21.27;;;15.82;;
81150;SDS011;70629;-26.026;27.976;2024-01-25T03:14:22;24.75;;;16.38;;
81150;SDS011;70629;-26.026;27.976;2024-01-25T03:15:03;21.30;;;16.55;;
81150;SDS011;70629;-26.026;27.976;2024-01-25T03:15:44;23.95;;;16.75;;
81150;SDS011;70629;-26.026;27.976;2024-01-25T03:16:24;26.17;;;16.50;;
81150;SDS011;70629;-26.026;27.976;2024-01-25T03:17:04;21.90;;;16.40;;
81150;SDS011;70629;-26.026;27.976;2024-01-25T03:17:44;22.27;;;16.35;;
81150;SDS011;70629;-26.026;27.976;2024-01-25T03:18:24;19.70;;;16.60;;
81150;SDS011;70629;-26.026;27.976;2024-01-25T03:19:04;22.00;;;16.27;;
81150;SDS011;70629;-26.026;27.976;2024-01-25T03:19:44;21.95;;;15.38;;
81150;SDS011;70629;-26.026;27.976;2024-01-25T03:20:24;24.30;;;16.30;;
81150;SDS011;70629;-26.026;27.976;2024-01-25T03:21:04;21.13;;;16.00;;
81150;SDS011;70629;-26.026;27.976;2024-01-25T03:21:44;27.40;;;17.50;;
81150;SDS011;70629;-26.026;27.976;2024-01-25T03:22:24;22.27;;;14.98;;
81150;SDS011;70629;-26.026;27.976;2024-01-25T03:23:04;20.02;;;15.48;;
81150;SDS011;70629;-26.026;27.976;2024-01-25T03:23:43;22.38;;;15.25;;
81150;SDS011;70629;-26.026;27.976;2024-01-25T03:24:23;23.05;;;15.35;;
81150;SDS011;70629;-26.026;27.976;2024-01-25T03:25:03;22.90;;;16.67;;
81150;SDS011;70629;-26.026;27.976;2024-01-25T03:25:44;23.38;;;15.82;;
81150;SDS011;70629;-26.026;27.976;2024-01-25T03:26:23;19.50;;;14.95;;
81150;SDS011;70629;-26.026;27.976;2024-01-25T03:27:06;20.20;;;15.68;;
81150;SDS011;70629;-26.026;27.976;2024-01-25T03:27:51;22.50;;;17.10;;
81150;SDS011;70629;-26.026;27.976;2024-01-25T03:28:32;23.25;;;16.40;;
81150;SDS011;70629;-26.026;27.976;2024-01-25T03:29:16;25.02;;;15.15;;
81150;SDS011;70629;-26.026;27.976;2024-01-25T03:29:56;22.77;;;16.85;;
81150;SDS011;70629;-26.026;27.976;2024-01-25T03:30:35;22.38;;;15.30;;
81150;SDS011;70629;-26.026;27.976;2024-01-25T03:31:15;23.48;;;16.35;;
81150;SDS011;70629;-26.026;27.976;2024-01-25T03:31:55;22.45;;;16.58;;
81150;SDS011;70629;-26.026;27.976;2024-01-25T03:32:35;21.50;;;15.55;;
81150;SDS011;70629;-26.026;27.976;2024-01-25T03:33:15;20.17;;;15.90;;
81150;SDS011;70629;-26.026;27.976;2024-01-25T03:33:55;23.92;;;17.17;;
81150;SDS011;70629;-26.026;27.976;2024-01-25T03:34:35;21.65;;;15.38;;
81150;SDS011;70629;-26.026;27.976;2024-01-25T03:35:15;26.50;;;17.20;;
81150;SDS011;70629;-26.026;27.976;2024-01-25T03:35:55;21.20;;;15.68;;
81150;SDS011;70629;-26.026;27.976;2024-01-25T03:36:35;22.80;;;16.55;;
81150;SDS011;70629;-26.026;27.976;2024-01-25T03:37:18;25.15;;;16.45;;
81150;SDS011;70629;-26.026;27.976;2024-01-25T03:37:58;22.55;;;15.25;;
81150;SDS011;70629;-26.026;27.976;2024-01-25T03:38:38;22.25;;;15.77;;
81150;SDS011;70629;-26.026;27.976;2024-01-25T03:39:17;23.95;;;16.35;;
81150;SDS011;70629;-26.026;27.976;2024-01-25T03:39:57;22.40;;;15.45;;
81150;SDS011;70629;-26.026;27.976;2024-01-25T03:40:37;23.90;;;16.60;;
81150;SDS011;70629;-26.026;27.976;2024-01-25T03:41:18;24.13;;;17.05;;
81150;SDS011;70629;-26.026;27.976;2024-01-25T03:41:58;22.92;;;16.55;;
81150;SDS011;70629;-26.026;27.976;2024-01-25T03:42:38;22.33;;;17.27;;
81150;SDS011;70629;-26.026;27.976;2024-01-25T03:43:20;19.58;;;15.85;;
81150;SDS011;70629;-26.026;27.976;2024-01-25T03:44:04;23.33;;;16.35;;
81150;SDS011;70629;-26.026;27.976;2024-01-25T03:44:44;26.15;;;17.08;;
81150;SDS011;70629;-26.026;27.976;2024-01-25T03:45:24;26.48;;;17.58;;
81150;SDS011;70629;-26.026;27.976;2024-01-25T03:46:05;23.25;;;16.65;;
81150;SDS011;70629;-26.026;27.976;2024-01-25T03:46:45;22.27;;;16.90;;
81150;SDS011;70629;-26.026;27.976;2024-01-25T03:47:25;20.45;;;16.20;;
81150;SDS011;70629;-26.026;27.976;2024-01-25T03:48:05;23.38;;;17.30;;
81150;SDS011;70629;-26.026;27.976;2024-01-25T03:48:45;21.85;;;16.17;;
81150;SDS011;70629;-26.026;27.976;2024-01-25T03:49:25;25.20;;;18.10;;
81150;SDS011;70629;-26.026;27.976;2024-01-25T03:50:06;22.90;;;15.63;;
81150;SDS011;70629;-26.026;27.976;2024-01-25T03:50:46;23.25;;;16.63;;
81150;SDS011;70629;-26.026;27.976;2024-01-25T03:51:27;20.00;;;16.48;;